TimeEST,TemperatureF,Dew PointF,Humidity,Sea Level PressureIn,VisibilityMPH,Wind Direction,Wind SpeedMPH,Gust SpeedMPH,PrecipitationIn,Events,Conditions,WindDirDegrees,DateUTC
12:54 AM,21.0,12.0,68,29.85,7.0,West,21.9,33.4,0.00,Snow,Light Snow,280,2013-02-21 05:54:00
1:49 AM,19.4,10.4,68,29.78,10.0,WNW,24.2,36.8,0.00,,Overcast,290,2013-02-21 06:49:00
1:54 AM,19.9,10.9,68,29.84,10.0,West,26.5,35.7,0.00,Snow,Light Snow,280,2013-02-21 06:54:00
2:25 AM,19.4,10.4,68,29.78,10.0,WNW,23.0,36.8,0.00,,Overcast,290,2013-02-21 07:25:00
2:54 AM,19.9,10.0,65,29.84,8.0,West,27.6,36.8,0.00,Snow,Light Snow,280,2013-02-21 07:54:00
3:54 AM,19.0,9.0,65,29.82,10.0,West,20.7,36.8,0.00,,Mostly Cloudy,270,2013-02-21 08:54:00
4:54 AM,19.0,10.0,68,29.83,8.0,West,18.4,29.9,0.00,Snow,Light Snow,270,2013-02-21 09:54:00
5:16 AM,19.4,10.4,68,29.79,9.0,WNW,12.7,21.9,0.00,,Overcast,290,2013-02-21 10:16:00
5:54 AM,19.0,10.0,68,29.86,8.0,WNW,15.0,25.3,0.00,Snow,Light Snow,290,2013-02-21 10:54:00
6:01 AM,19.4,10.4,68,29.80,10.0,West,13.8,25.3,N/A,,Overcast,280,2013-02-21 11:01:00
6:39 AM,19.4,8.6,63,29.81,10.0,WNW,23.0,35.7,N/A,,Overcast,290,2013-02-21 11:39:00
6:54 AM,19.0,10.0,68,29.87,4.0,West,16.1,25.3,0.00,Snow,Light Snow,280,2013-02-21 11:54:00
7:04 AM,17.6,10.4,73,29.81,2.0,WNW,15.0,26.5,0.00,Snow,Light Snow,290,2013-02-21 12:04:00
7:11 AM,17.6,10.4,73,29.82,2.0,WNW,16.1,23.0,0.00,Snow,Light Snow,290,2013-02-21 12:11:00
7:30 AM,17.6,10.4,73,29.83,8.0,WNW,16.1,36.8,0.00,,Overcast,290,2013-02-21 12:30:00
7:50 AM,17.6,10.4,73,29.84,1.8,NW,12.7,29.9,0.00,Snow,Light Snow,310,2013-02-21 12:50:00
7:54 AM,18.0,10.0,71,29.90,1.0,WNW,13.8,35.7,0.00,Snow,Light Snow,290,2013-02-21 12:54:00
8:17 AM,17.6,8.6,68,29.85,3.0,NW,13.8,29.9,0.00,Snow,Light Snow,320,2013-02-21 13:17:00
8:41 AM,15.8,6.8,68,29.86,2.5,NNW,15.0,29.9,0.00,Snow,Light Snow,330,2013-02-21 13:41:00
8:54 AM,16.0,8.1,71,29.93,1.8,WNW,13.8,21.9,0.00,Snow,Light Snow,290,2013-02-21 13:54:00
9:33 AM,15.8,6.8,68,29.87,3.0,WNW,21.9,27.6,0.00,Snow,Light Snow,300,2013-02-21 14:33:00
9:40 AM,15.8,6.8,68,29.88,4.0,WNW,13.8,29.9,0.00,Snow,Light Snow,300,2013-02-21 14:40:00
9:54 AM,17.1,7.0,65,29.95,5.0,NW,13.8,24.2,0.00,Snow,Light Snow,310,2013-02-21 14:54:00
10:54 AM,16.0,6.1,65,29.97,10.0,NW,10.4,18.4,0.00,,Overcast,310,2013-02-21 15:54:00
11:54 AM,15.1,6.1,68,30.00,8.0,NW,16.1,27.6,N/A,,Overcast,310,2013-02-21 16:54:00
12:54 PM,16.0,7.0,68,29.99,10.0,NW,15.0,23.0,0.00,,Overcast,320,2013-02-21 17:54:00
1:54 PM,17.1,7.0,65,29.99,10.0,NW,17.3,28.8,N/A,,Mostly Cloudy,320,2013-02-21 18:54:00
2:32 PM,17.6,6.8,63,29.93,10.0,WNW,25.3,34.5,N/A,,Scattered Clouds,290,2013-02-21 19:32:00
2:54 PM,17.1,7.0,65,30.01,10.0,WNW,20.7,29.9,N/A,,Clear,300,2013-02-21 19:54:00
3:54 PM,17.1,7.0,65,30.05,10.0,NW,15.0,26.5,N/A,,Clear,310,2013-02-21 20:54:00
4:54 PM,16.0,6.1,65,30.08,10.0,NW,21.9,32.2,N/A,,Clear,310,2013-02-21 21:54:00
5:54 PM,15.1,6.1,68,30.13,10.0,WNW,10.4,21.9,N/A,,Partly Cloudy,300,2013-02-21 22:54:00
6:54 PM,16.0,7.0,68,30.16,10.0,WNW,15.0,21.9,N/A,,Overcast,300,2013-02-21 23:54:00
7:54 PM,16.0,8.1,71,30.18,10.0,WNW,8.1,21.9,N/A,,Mostly Cloudy,300,2013-02-22 00:54:00
8:02 PM,17.6,8.6,68,30.12,10.0,NW,10.4,-,N/A,,Mostly Cloudy,310,2013-02-22 01:02:00
8:54 PM,16.0,8.1,71,30.23,10.0,NW,15.0,-,N/A,,Mostly Cloudy,310,2013-02-22 01:54:00
9:04 PM,15.8,8.6,73,30.17,10.0,WNW,18.4,-,N/A,,Scattered Clouds,300,2013-02-22 02:04:00
9:54 PM,16.0,9.0,74,30.27,10.0,West,16.1,21.9,N/A,,Scattered Clouds,280,2013-02-22 02:54:00
10:06 PM,15.8,8.6,73,30.21,10.0,WNW,15.0,20.7,N/A,,Mostly Cloudy,290,2013-02-22 03:06:00
10:54 PM,16.0,9.0,74,30.33,10.0,WNW,16.1,21.9,N/A,,Overcast,290,2013-02-22 03:54:00
11:54 PM,17.1,10.0,74,30.34,10.0,WNW,10.4,-,N/A,,Overcast,290,2013-02-22 04:54:00